sensor_id;sensor_type;location;lat;lon;timestamp;temperature;humidity
55173;DHT22;41061;52.822;6.860;2023-02-04T00:00:51;6.60;99.90
55173;DHT22;41061;52.822;6.860;2023-02-04T00:03:17;6.60;99.90
55173;DHT22;41061;52.822;6.860;2023-02-04T00:05:43;6.50;99.90
55173;DHT22;41061;52.822;6.860;2023-02-04T00:08:08;6.50;99.90
55173;DHT22;41061;52.822;6.860;2023-02-04T00:10:35;6.50;99.90
55173;DHT22;41061;52.822;6.860;2023-02-04T00:13:02;6.50;99.90
55173;DHT22;41061;52.822;6.860;2023-02-04T00:15:28;6.50;99.90
55173;DHT22;41061;52.822;6.860;2023-02-04T00:17:54;6.50;99.90
55173;DHT22;41061;52.822;6.860;2023-02-04T00:20:20;6.50;99.90
55173;DHT22;41061;52.822;6.860;2023-02-04T00:22:46;6.50;99.90
55173;DHT22;41061;52.822;6.860;2023-02-04T00:25:12;6.50;99.90
55173;DHT22;41061;52.822;6.860;2023-02-04T00:27:37;6.60;99.90
55173;DHT22;41061;52.822;6.860;2023-02-04T00:30:04;6.50;99.90
55173;DHT22;41061;52.822;6.860;2023-02-04T00:32:30;6.50;99.90
55173;DHT22;41061;52.822;6.860;2023-02-04T00:34:56;6.50;99.90
55173;DHT22;41061;52.822;6.860;2023-02-04T00:37:22;6.50;99.90
55173;DHT22;41061;52.822;6.860;2023-02-04T00:39:47;6.50;99.90
55173;DHT22;41061;52.822;6.860;2023-02-04T00:42:13;6.50;99.90
55173;DHT22;41061;52.822;6.860;2023-02-04T00:44:39;6.50;99.90
55173;DHT22;41061;52.822;6.860;2023-02-04T00:47:05;6.50;99.90
55173;DHT22;41061;52.822;6.860;2023-02-04T00:49:32;6.60;99.90
55173;DHT22;41061;52.822;6.860;2023-02-04T00:51:58;6.60;99.90
55173;DHT22;41061;52.822;6.860;2023-02-04T00:54:24;6.50;99.90
55173;DHT22;41061;52.822;6.860;2023-02-04T00:56:50;6.50;99.90
55173;DHT22;41061;52.822;6.860;2023-02-04T00:59:15;6.50;99.90
55173;DHT22;41061;52.822;6.860;2023-02-04T01:01:41;6.50;99.90
55173;DHT22;41061;52.822;6.860;2023-02-04T01:04:07;6.50;99.90
55173;DHT22;41061;52.822;6.860;2023-02-04T01:06:33;6.50;99.90
55173;DHT22;41061;52.822;6.860;2023-02-04T01:08:59;6.50;99.90
55173;DHT22;41061;52.822;6.860;2023-02-04T01:11:27;6.50;99.90
55173;DHT22;41061;52.822;6.860;2023-02-04T01:13:53;6.50;99.90
55173;DHT22;41061;52.822;6.860;2023-02-04T01:16:19;6.50;99.90
55173;DHT22;41061;52.822;6.860;2023-02-04T01:18:44;6.40;99.90
55173;DHT22;41061;52.822;6.860;2023-02-04T01:21:10;6.40;99.90
55173;DHT22;41061;52.822;6.860;2023-02-04T01:23:36;6.40;99.90
55173;DHT22;41061;52.822;6.860;2023-02-04T01:26:02;6.40;99.90
55173;DHT22;41061;52.822;6.860;2023-02-04T01:28:28;6.40;99.90
55173;DHT22;41061;52.822;6.860;2023-02-04T01:30:54;6.40;99.90
55173;DHT22;41061;52.822;6.860;2023-02-04T01:33:20;6.40;99.90
55173;DHT22;41061;52.822;6.860;2023-02-04T01:35:46;6.40;99.90
55173;DHT22;41061;52.822;6.860;2023-02-04T01:38:11;6.30;99.90
55173;DHT22;41061;52.822;6.860;2023-02-04T01:40:37;6.40;99.90
55173;DHT22;41061;52.822;6.860;2023-02-04T01:43:03;6.40;99.90
55173;DHT22;41061;52.822;6.860;2023-02-04T01:45:30;6.40;99.90
55173;DHT22;41061;52.822;6.860;2023-02-04T01:47:59;6.40;99.90
55173;DHT22;41061;52.822;6.860;2023-02-04T01:50:24;6.40;99.90
55173;DHT22;41061;52.822;6.860;2023-02-04T01:52:51;6.40;99.90
55173;DHT22;41061;52.822;6.860;2023-02-04T01:55:19;6.40;99.90
55173;DHT22;41061;52.822;6.860;2023-02-04T01:57:46;6.40;99.90
55173;DHT22;41061;52.822;6.860;2023-02-04T02:00:15;6.40;99.90
55173;DHT22;41061;52.822;6.860;2023-02-04T02:02:50;6.40;99.90
55173;DHT22;41061;52.822;6.860;2023-02-04T02:05:19;6.50;99.90
55173;DHT22;41061;52.822;6.860;2023-02-04T02:07:49;6.50;99.90
55173;DHT22;41061;52.822;6.860;2023-02-04T02:10:16;6.50;99.90
55173;DHT22;41061;52.822;6.860;2023-02-04T02:12:43;6.40;99.90
55173;DHT22;41061;52.822;6.860;2023-02-04T02:15:10;6.40;99.90
55173;DHT22;41061;52.822;6.860;2023-02-04T02:17:38;6.40;99.90
55173;DHT22;41061;52.822;6.860;2023-02-04T02:20:06;6.40;99.90
55173;DHT22;41061;52.822;6.860;2023-02-04T02:25:20;6.40;99.90
55173;DHT22;41061;52.822;6.860;2023-02-04T02:27:46;6.40;99.90
55173;DHT22;41061;52.822;6.860;2023-02-04T02:30:13;6.30;99.90
55173;DHT22;41061;52.822;6.860;2023-02-04T02:32:43;6.30;99.90
55173;DHT22;41061;52.822;6.860;2023-02-04T02:35:09;6.30;99.90
55173;DHT22;41061;52.822;6.860;2023-02-04T02:37:35;6.30;99.90
55173;DHT22;41061;52.822;6.860;2023-02-04T02:40:02;6.30;99.90
55173;DHT22;41061;52.822;6.860;2023-02-04T02:42:28;6.30;99.90
55173;DHT22;41061;52.822;6.860;2023-02-04T02:44:55;6.30;99.90
55173;DHT22;41061;52.822;6.860;2023-02-04T02:47:22;6.30;99.90
55173;DHT22;41061;52.822;6.860;2023-02-04T02:49:51;6.40;99.90
55173;DHT22;41061;52.822;6.860;2023-02-04T02:52:18;6.30;99.90
55173;DHT22;41061;52.822;6.860;2023-02-04T02:54:44;6.30;99.90
55173;DHT22;41061;52.822;6.860;2023-02-04T02:57:19;6.30;99.90
55173;DHT22;41061;52.822;6.860;2023-02-04T02:59:45;6.30;99.90
55173;DHT22;41061;52.822;6.860;2023-02-04T03:02:14;6.40;99.90
55173;DHT22;41061;52.822;6.860;2023-02-04T03:04:43;6.30;99.90
55173;DHT22;41061;52.822;6.860;2023-02-04T03:07:11;6.40;99.90
55173;DHT22;41061;52.822;6.860;2023-02-04T03:09:38;6.40;99.90
55173;DHT22;41061;52.822;6.860;2023-02-04T03:12:04;6.40;99.90
55173;DHT22;41061;52.822;6.860;2023-02-04T03:14:31;6.40;99.90
55173;DHT22;41061;52.822;6.860;2023-02-04T03:16:58;6.40;99.90
55173;DHT22;41061;52.822;6.860;2023-02-04T03:19:25;6.40;99.90
55173;DHT22;41061;52.822;6.860;2023-02-04T03:21:55;6.40;99.90
55173;DHT22;41061;52.822;6.860;2023-02-04T03:24:21;6.40;99.90
55173;DHT22;41061;52.822;6.860;2023-02-04T03:26:47;6.40;99.90
55173;DHT22;41061;52.822;6.860;2023-02-04T03:29:13;6.50;99.90
55173;DHT22;41061;52.822;6.860;2023-02-04T03:31:38;6.40;99.90
55173;DHT22;41061;52.822;6.860;2023-02-04T03:34:04;6.40;99.90
55173;DHT22;41061;52.822;6.860;2023-02-04T03:36:30;6.40;99.90
55173;DHT22;41061;52.822;6.860;2023-02-04T03:38:56;6.40;99.90
55173;DHT22;41061;52.822;6.860;2023-02-04T03:41:22;6.40;99.90
55173;DHT22;41061;52.822;6.860;2023-02-04T03:43:47;6.40;99.90
55173;DHT22;41061;52.822;6.860;2023-02-04T03:46:13;6.40;99.90
55173;DHT22;41061;52.822;6.860;2023-02-04T03:48:39;6.40;99.90
55173;DHT22;41061;52.822;6.860;2023-02-04T03:51:05;6.40;99.90
55173;DHT22;41061;52.822;6.860;2023-02-04T03:53:31;6.40;99.90
55173;DHT22;41061;52.822;6.860;2023-02-04T03:55:56;6.40;99.90
55173;DHT22;41061;52.822;6.860;2023-02-04T03:58:22;6.40;99.90
55173;DHT22;41061;52.822;6.860;2023-02-04T04:00:48;6.40;99.90
55173;DHT22;41061;52.822;6.860;2023-02-04T04:03:14;6.40;99.90
55173;DHT22;41061;52.822;6.860;2023-02-04T04:05:40;6.40;99.90
55173;DHT22;41061;52.822;6.860;2023-02-04T04:08:05;6.40;99.90
55173;DHT22;41061;52.822;6.860;2023-02-04T04:10:31;6.50;99.90
55173;DHT22;41061;52.822;6.860;2023-02-04T04:12:57;6.50;99.90
55173;DHT22;41061;52.822;6.860;2023-02-04T04:15:23;6.50;99.90
55173;DHT22;41061;52.822;6.860;2023-02-04T04:17:48;6.50;99.90
55173;DHT22;41061;52.822;6.860;2023-02-04T04:20:14;6.50;99.90
55173;DHT22;41061;52.822;6.860;2023-02-04T04:22:40;6.50;99.90
55173;DHT22;41061;52.822;6.860;2023-02-04T04:25:07;6.60;99.90
55173;DHT22;41061;52.822;6.860;2023-02-04T04:27:32;6.50;99.90
55173;DHT22;41061;52.822;6.860;2023-02-04T04:29:58;6.50;99.90
55173;DHT22;41061;52.822;6.860;2023-02-04T04:32:24;6.50;99.90
55173;DHT22;41061;52.822;6.860;2023-02-04T04:34:50;6.50;99.90
55173;DHT22;41061;52.822;6.860;2023-02-04T04:37:16;6.50;99.90
55173;DHT22;41061;52.822;6.860;2023-02-04T04:39:41;6.50;99.90
55173;DHT22;41061;52.822;6.860;2023-02-04T04:42:07;6.50;99.90
55173;DHT22;41061;52.822;6.860;2023-02-04T04:44:33;6.50;99.90
55173;DHT22;41061;52.822;6.860;2023-02-04T04:46:58;6.50;99.90
55173;DHT22;41061;52.822;6.860;2023-02-04T04:49:24;6.50;99.90
55173;DHT22;41061;52.822;6.860;2023-02-04T04:51:50;6.50;99.90
55173;DHT22;41061;52.822;6.860;2023-02-04T04:54:15;6.50;99.90
55173;DHT22;41061;52.822;6.860;2023-02-04T04:56:41;6.40;99.90
55173;DHT22;41061;52.822;6.860;2023-02-04T04:59:07;6.40;99.90
55173;DHT22;41061;52.822;6.860;2023-02-04T05:01:33;6.40;99.90
55173;DHT22;41061;52.822;6.860;2023-02-04T05:03:58;6.40;99.90
55173;DHT22;41061;52.822;6.860;2023-02-04T05:06:24;6.40;99.90
55173;DHT22;41061;52.822;6.860;2023-02-04T05:08:53;6.40;99.90
55173;DHT22;41061;52.822;6.860;2023-02-04T05:11:20;6.40;99.90
55173;DHT22;41061;52.822;6.860;2023-02-04T05:13:46;6.40;99.90
55173;DHT22;41061;52.822;6.860;2023-02-04T05:16:12;6.40;99.90
55173;DHT22;41061;52.822;6.860;2023-02-04T05:18:38;6.40;99.90
55173;DHT22;41061;52.822;6.860;2023-02-04T05:21:05;6.40;99.90
55173;DHT22;41061;52.822;6.860;2023-02-04T05:23:31;6.40;99.90
55173;DHT22;41061;52.822;6.860;2023-02-04T05:25:57;6.30;99.90
55173;DHT22;41061;52.822;6.860;2023-02-04T05:28:22;6.30;99.90
55173;DHT22;41061;52.822;6.860;2023-02-04T05:30:48;6.20;99.90
55173;DHT22;41061;52.822;6.860;2023-02-04T05:33:14;6.10;99.90
55173;DHT22;41061;52.822;6.860;2023-02-04T05:35:39;6.10;99.90
55173;DHT22;41061;52.822;6.860;2023-02-04T05:38:05;6.00;99.90
55173;DHT22;41061;52.822;6.860;2023-02-04T05:40:31;6.10;99.90
55173;DHT22;41061;52.822;6.860;2023-02-04T05:42:57;6.10;99.90
55173;DHT22;41061;52.822;6.860;2023-02-04T05:45:22;6.10;99.90
55173;DHT22;41061;52.822;6.860;2023-02-04T05:47:48;6.10;99.90
55173;DHT22;41061;52.822;6.860;2023-02-04T05:50:14;6.10;99.90
55173;DHT22;41061;52.822;6.860;2023-02-04T05:52:40;6.10;99.90
55173;DHT22;41061;52.822;6.860;2023-02-04T05:55:06;6.10;99.90
55173;DHT22;41061;52.822;6.860;2023-02-04T05:57:32;6.10;99.90
55173;DHT22;41061;52.822;6.860;2023-02-04T05:59:57;6.00;99.90
55173;DHT22;41061;52.822;6.860;2023-02-04T06:02:23;6.00;99.90
55173;DHT22;41061;52.822;6.860;2023-02-04T06:04:49;6.00;99.90
55173;DHT22;41061;52.822;6.860;2023-02-04T06:07:15;6.00;99.90
55173;DHT22;41061;52.822;6.860;2023-02-04T06:09:41;5.90;99.90
55173;DHT22;41061;52.822;6.860;2023-02-04T06:12:06;5.90;99.90
55173;DHT22;41061;52.822;6.860;2023-02-04T06:14:32;5.90;99.90
55173;DHT22;41061;52.822;6.860;2023-02-04T06:16:58;5.90;99.90
55173;DHT22;41061;52.822;6.860;2023-02-04T06:19:24;5.90;99.90
55173;DHT22;41061;52.822;6.860;2023-02-04T06:21:50;5.90;99.90
55173;DHT22;41061;52.822;6.860;2023-02-04T06:24:16;5.80;99.90
55173;DHT22;41061;52.822;6.860;2023-02-04T06:26:41;5.80;99.90
55173;DHT22;41061;52.822;6.860;2023-02-04T06:29:07;5.80;99.90
55173;DHT22;41061;52.822;6.860;2023-02-04T06:31:33;5.80;99.90
55173;DHT22;41061;52.822;6.860;2023-02-04T06:33:59;5.80;99.90
55173;DHT22;41061;52.822;6.860;2023-02-04T06:36:24;5.80;99.90
55173;DHT22;41061;52.822;6.860;2023-02-04T06:38:50;5.80;99.90
55173;DHT22;41061;52.822;6.860;2023-02-04T06:41:16;5.80;99.90
55173;DHT22;41061;52.822;6.860;2023-02-04T06:43:41;5.70;99.90
55173;DHT22;41061;52.822;6.860;2023-02-04T06:46:07;5.70;99.90
55173;DHT22;41061;52.822;6.860;2023-02-04T06:48:33;5.70;99.90
55173;DHT22;41061;52.822;6.860;2023-02-04T06:50:58;5.70;99.90
55173;DHT22;41061;52.822;6.860;2023-02-04T06:53:24;5.70;99.90
55173;DHT22;41061;52.822;6.860;2023-02-04T06:55:50;5.70;99.90
55173;DHT22;41061;52.822;6.860;2023-02-04T06:58:17;5.70;99.90
55173;DHT22;41061;52.822;6.860;2023-02-04T07:00:43;5.70;99.90
55173;DHT22;41061;52.822;6.860;2023-02-04T07:03:08;5.70;99.90
55173;DHT22;41061;52.822;6.860;2023-02-04T07:05:34;5.70;99.90
55173;DHT22;41061;52.822;6.860;2023-02-04T07:08:00;5.70;99.90
55173;DHT22;41061;52.822;6.860;2023-02-04T07:10:25;5.70;99.90
55173;DHT22;41061;52.822;6.860;2023-02-04T07:12:51;5.70;99.90
55173;DHT22;41061;52.822;6.860;2023-02-04T07:15:17;5.70;99.90
55173;DHT22;41061;52.822;6.860;2023-02-04T07:17:43;5.70;99.90
55173;DHT22;41061;52.822;6.860;2023-02-04T07:20:10;5.70;99.90
55173;DHT22;41061;52.822;6.860;2023-02-04T07:22:36;5.70;99.90
55173;DHT22;41061;52.822;6.860;2023-02-04T07:25:01;5.70;99.90
55173;DHT22;41061;52.822;6.860;2023-02-04T07:27:27;5.70;99.90
55173;DHT22;41061;52.822;6.860;2023-02-04T07:29:53;5.60;99.90
55173;DHT22;41061;52.822;6.860;2023-02-04T07:32:18;5.60;99.90
55173;DHT22;41061;52.822;6.860;2023-02-04T07:34:44;5.60;99.90
55173;DHT22;41061;52.822;6.860;2023-02-04T07:37:10;5.60;99.90
55173;DHT22;41061;52.822;6.860;2023-02-04T07:39:35;5.60;99.90
55173;DHT22;41061;52.822;6.860;2023-02-04T07:42:01;5.60;99.90
55173;DHT22;41061;52.822;6.860;2023-02-04T07:44:27;5.60;99.90
55173;DHT22;41061;52.822;6.860;2023-02-04T07:46:52;5.60;99.90
55173;DHT22;41061;52.822;6.860;2023-02-04T07:49:18;5.60;99.90
55173;DHT22;41061;52.822;6.860;2023-02-04T07:51:44;5.60;99.90
55173;DHT22;41061;52.822;6.860;2023-02-04T07:54:09;5.50;99.90
55173;DHT22;41061;52.822;6.860;2023-02-04T07:56:35;5.50;99.90
55173;DHT22;41061;52.822;6.860;2023-02-04T07:59:01;5.50;99.90
55173;DHT22;41061;52.822;6.860;2023-02-04T08:01:26;5.60;99.90
55173;DHT22;41061;52.822;6.860;2023-02-04T08:03:52;5.50;99.90
55173;DHT22;41061;52.822;6.860;2023-02-04T08:06:18;5.50;99.90
55173;DHT22;41061;52.822;6.860;2023-02-04T08:08:43;5.50;99.90
55173;DHT22;41061;52.822;6.860;2023-02-04T08:11:09;5.50;99.90
55173;DHT22;41061;52.822;6.860;2023-02-04T08:13:35;5.50;99.90
55173;DHT22;41061;52.822;6.860;2023-02-04T08:16:00;5.50;99.90
55173;DHT22;41061;52.822;6.860;2023-02-04T08:18:26;5.60;99.90
55173;DHT22;41061;52.822;6.860;2023-02-04T08:20:52;5.60;99.90
55173;DHT22;41061;52.822;6.860;2023-02-04T08:23:18;5.60;99.90
55173;DHT22;41061;52.822;6.860;2023-02-04T08:25:43;5.60;99.90
55173;DHT22;41061;52.822;6.860;2023-02-04T08:28:10;5.60;99.90
55173;DHT22;41061;52.822;6.860;2023-02-04T08:30:36;5.70;99.90
55173;DHT22;41061;52.822;6.860;2023-02-04T08:33:01;5.70;99.90
55173;DHT22;41061;52.822;6.860;2023-02-04T08:35:27;5.70;99.90
55173;DHT22;41061;52.822;6.860;2023-02-04T08:37:53;5.70;99.90
55173;DHT22;41061;52.822;6.860;2023-02-04T08:40:19;5.70;99.90
55173;DHT22;41061;52.822;6.860;2023-02-04T08:42:44;5.80;99.90
55173;DHT22;41061;52.822;6.860;2023-02-04T08:45:10;5.80;99.90
55173;DHT22;41061;52.822;6.860;2023-02-04T08:47:36;5.80;99.90
55173;DHT22;41061;52.822;6.860;2023-02-04T08:50:01;5.70;99.90
55173;DHT22;41061;52.822;6.860;2023-02-04T08:52:27;5.80;99.90
55173;DHT22;41061;52.822;6.860;2023-02-04T08:54:53;5.80;99.90
55173;DHT22;41061;52.822;6.860;2023-02-04T08:57:19;5.80;99.90
55173;DHT22;41061;52.822;6.860;2023-02-04T08:59:44;5.80;99.90
55173;DHT22;41061;52.822;6.860;2023-02-04T09:02:10;5.90;99.90
55173;DHT22;41061;52.822;6.860;2023-02-04T09:04:36;5.90;99.90
55173;DHT22;41061;52.822;6.860;2023-02-04T09:07:02;5.90;99.90
55173;DHT22;41061;52.822;6.860;2023-02-04T09:09:27;5.90;99.90
55173;DHT22;41061;52.822;6.860;2023-02-04T09:11:54;5.90;99.90
55173;DHT22;41061;52.822;6.860;2023-02-04T09:14:20;5.90;99.90
55173;DHT22;41061;52.822;6.860;2023-02-04T09:16:45;6.00;99.90
55173;DHT22;41061;52.822;6.860;2023-02-04T09:19:13;6.00;99.90
55173;DHT22;41061;52.822;6.860;2023-02-04T09:21:41;6.00;99.90
55173;DHT22;41061;52.822;6.860;2023-02-04T09:24:07;6.10;99.90
55173;DHT22;41061;52.822;6.860;2023-02-04T09:26:32;6.10;99.90
55173;DHT22;41061;52.822;6.860;2023-02-04T09:28:58;6.20;99.90
55173;DHT22;41061;52.822;6.860;2023-02-04T09:31:24;6.20;99.90
55173;DHT22;41061;52.822;6.860;2023-02-04T09:33:49;6.20;99.90
55173;DHT22;41061;52.822;6.860;2023-02-04T09:36:15;6.30;99.90
55173;DHT22;41061;52.822;6.860;2023-02-04T09:38:41;6.30;99.90
55173;DHT22;41061;52.822;6.860;2023-02-04T09:41:09;6.30;99.90
55173;DHT22;41061;52.822;6.860;2023-02-04T09:43:39;6.30;99.90
55173;DHT22;41061;52.822;6.860;2023-02-04T09:48:41;6.40;99.90
55173;DHT22;41061;52.822;6.860;2023-02-04T09:51:07;6.40;99.90
55173;DHT22;41061;52.822;6.860;2023-02-04T09:53:34;6.40;99.90
55173;DHT22;41061;52.822;6.860;2023-02-04T09:56:00;6.50;99.90
55173;DHT22;41061;52.822;6.860;2023-02-04T09:58:30;6.50;99.90
55173;DHT22;41061;52.822;6.860;2023-02-04T10:01:00;6.50;99.90
55173;DHT22;41061;52.822;6.860;2023-02-04T10:03:26;6.60;99.90
55173;DHT22;41061;52.822;6.860;2023-02-04T10:05:52;6.70;99.90
55173;DHT22;41061;52.822;6.860;2023-02-04T10:08:19;6.70;99.90
55173;DHT22;41061;52.822;6.860;2023-02-04T10:10:47;6.80;99.90
55173;DHT22;41061;52.822;6.860;2023-02-04T10:13:33;6.80;99.90
55173;DHT22;41061;52.822;6.860;2023-02-04T10:16:01;6.80;99.90
55173;DHT22;41061;52.822;6.860;2023-02-04T10:18:30;6.80;99.90
55173;DHT22;41061;52.822;6.860;2023-02-04T10:21:16;6.80;99.90
55173;DHT22;41061;52.822;6.860;2023-02-04T10:23:44;6.80;99.90
55173;DHT22;41061;52.822;6.860;2023-02-04T10:26:11;6.80;99.90
55173;DHT22;41061;52.822;6.860;2023-02-04T10:28:38;6.80;99.90
55173;DHT22;41061;52.822;6.860;2023-02-04T10:31:36;6.80;99.90
55173;DHT22;41061;52.822;6.860;2023-02-04T10:34:13;6.80;99.90
55173;DHT22;41061;52.822;6.860;2023-02-04T10:36:41;6.90;99.90
55173;DHT22;41061;52.822;6.860;2023-02-04T10:39:14;6.90;99.90
55173;DHT22;41061;52.822;6.860;2023-02-04T10:41:48;7.00;99.90
55173;DHT22;41061;52.822;6.860;2023-02-04T10:44:18;7.00;99.90
55173;DHT22;41061;52.822;6.860;2023-02-04T10:46:44;7.10;99.90
55173;DHT22;41061;52.822;6.860;2023-02-04T10:49:23;7.20;99.90
55173;DHT22;41061;52.822;6.860;2023-02-04T10:51:50;7.20;99.90
55173;DHT22;41061;52.822;6.860;2023-02-04T10:54:28;7.30;99.90
55173;DHT22;41061;52.822;6.860;2023-02-04T10:57:37;7.40;99.90
55173;DHT22;41061;52.822;6.860;2023-02-04T11:00:13;7.40;99.90
55173;DHT22;41061;52.822;6.860;2023-02-04T11:02:40;7.50;99.90
55173;DHT22;41061;52.822;6.860;2023-02-04T11:05:19;7.60;99.90
55173;DHT22;41061;52.822;6.860;2023-02-04T11:07:47;7.50;99.90
55173;DHT22;41061;52.822;6.860;2023-02-04T11:10:19;7.50;99.90
55173;DHT22;41061;52.822;6.860;2023-02-04T11:15:44;7.60;99.90
55173;DHT22;41061;52.822;6.860;2023-02-04T11:20:44;7.70;99.90
55173;DHT22;41061;52.822;6.860;2023-02-04T11:28:55;7.60;99.90
55173;DHT22;41061;52.822;6.860;2023-02-04T11:39:16;7.60;99.90
55173;DHT22;41061;52.822;6.860;2023-02-04T11:41:44;7.70;99.90
55173;DHT22;41061;52.822;6.860;2023-02-04T11:44:11;7.80;99.90
55173;DHT22;41061;52.822;6.860;2023-02-04T11:46:37;7.90;99.90
55173;DHT22;41061;52.822;6.860;2023-02-04T11:49:03;8.00;99.90
55173;DHT22;41061;52.822;6.860;2023-02-04T11:51:31;8.10;99.90
55173;DHT22;41061;52.822;6.860;2023-02-04T11:53:58;8.10;99.90
55173;DHT22;41061;52.822;6.860;2023-02-04T11:56:27;8.10;99.90
55173;DHT22;41061;52.822;6.860;2023-02-04T11:58:56;8.30;99.90
55173;DHT22;41061;52.822;6.860;2023-02-04T12:01:24;8.40;99.90
55173;DHT22;41061;52.822;6.860;2023-02-04T12:03:57;8.50;99.90
55173;DHT22;41061;52.822;6.860;2023-02-04T12:06:25;8.60;99.90
55173;DHT22;41061;52.822;6.860;2023-02-04T12:08:52;8.70;99.90
55173;DHT22;41061;52.822;6.860;2023-02-04T12:11:29;8.70;99.90
55173;DHT22;41061;52.822;6.860;2023-02-04T12:13:57;8.80;99.90
55173;DHT22;41061;52.822;6.860;2023-02-04T12:16:24;8.70;99.90
55173;DHT22;41061;52.822;6.860;2023-02-04T12:18:50;8.70;99.90
55173;DHT22;41061;52.822;6.860;2023-02-04T12:21:16;8.60;99.90
55173;DHT22;41061;52.822;6.860;2023-02-04T12:23:44;8.70;99.90
55173;DHT22;41061;52.822;6.860;2023-02-04T12:26:10;8.80;99.90
55173;DHT22;41061;52.822;6.860;2023-02-04T12:28:36;8.90;99.90
55173;DHT22;41061;52.822;6.860;2023-02-04T12:31:01;9.00;99.90
55173;DHT22;41061;52.822;6.860;2023-02-04T12:33:27;9.10;99.90
55173;DHT22;41061;52.822;6.860;2023-02-04T12:35:53;9.20;99.90
55173;DHT22;41061;52.822;6.860;2023-02-04T12:38:19;9.20;99.90
55173;DHT22;41061;52.822;6.860;2023-02-04T12:40:45;9.30;99.90
55173;DHT22;41061;52.822;6.860;2023-02-04T12:43:11;9.40;99.90
55173;DHT22;41061;52.822;6.860;2023-02-04T12:45:36;9.40;99.90
55173;DHT22;41061;52.822;6.860;2023-02-04T12:48:04;9.50;99.90
55173;DHT22;41061;52.822;6.860;2023-02-04T12:50:30;9.60;99.90
55173;DHT22;41061;52.822;6.860;2023-02-04T12:52:57;9.70;99.90
55173;DHT22;41061;52.822;6.860;2023-02-04T12:55:25;9.90;99.90
55173;DHT22;41061;52.822;6.860;2023-02-04T12:57:52;10.00;99.90
55173;DHT22;41061;52.822;6.860;2023-02-04T13:00:19;10.00;99.90
55173;DHT22;41061;52.822;6.860;2023-02-04T13:02:45;9.80;99.90
55173;DHT22;41061;52.822;6.860;2023-02-04T13:05:11;9.70;99.90
55173;DHT22;41061;52.822;6.860;2023-02-04T13:07:38;9.70;99.90
55173;DHT22;41061;52.822;6.860;2023-02-04T13:10:11;9.70;99.90
55173;DHT22;41061;52.822;6.860;2023-02-04T13:12:37;9.70;99.90
55173;DHT22;41061;52.822;6.860;2023-02-04T13:15:04;9.70;99.90
55173;DHT22;41061;52.822;6.860;2023-02-04T13:17:30;9.70;99.90
55173;DHT22;41061;52.822;6.860;2023-02-04T13:19:56;9.60;99.90
55173;DHT22;41061;52.822;6.860;2023-02-04T13:22:21;9.50;99.90
55173;DHT22;41061;52.822;6.860;2023-02-04T13:24:47;9.40;99.90
55173;DHT22;41061;52.822;6.860;2023-02-04T13:27:13;9.40;99.90
55173;DHT22;41061;52.822;6.860;2023-02-04T13:29:40;9.30;99.90
55173;DHT22;41061;52.822;6.860;2023-02-04T13:32:06;9.30;99.90
55173;DHT22;41061;52.822;6.860;2023-02-04T13:34:31;9.20;99.90
55173;DHT22;41061;52.822;6.860;2023-02-04T13:36:57;9.20;99.90
55173;DHT22;41061;52.822;6.860;2023-02-04T13:39:23;9.10;99.90
55173;DHT22;41061;52.822;6.860;2023-02-04T13:41:49;9.10;99.90
55173;DHT22;41061;52.822;6.860;2023-02-04T13:44:15;9.00;99.90
55173;DHT22;41061;52.822;6.860;2023-02-04T13:46:40;8.90;99.90
55173;DHT22;41061;52.822;6.860;2023-02-04T13:49:06;8.90;99.90
55173;DHT22;41061;52.822;6.860;2023-02-04T13:51:32;8.90;99.90
55173;DHT22;41061;52.822;6.860;2023-02-04T13:53:58;8.80;99.90
55173;DHT22;41061;52.822;6.860;2023-02-04T13:56:26;8.80;99.90
55173;DHT22;41061;52.822;6.860;2023-02-04T13:58:51;8.70;99.90
55173;DHT22;41061;52.822;6.860;2023-02-04T14:01:18;8.70;99.90
55173;DHT22;41061;52.822;6.860;2023-02-04T14:03:44;8.60;99.90
55173;DHT22;41061;52.822;6.860;2023-02-04T14:06:11;8.50;99.90
55173;DHT22;41061;52.822;6.860;2023-02-04T14:08:37;8.40;99.90
55173;DHT22;41061;52.822;6.860;2023-02-04T14:11:03;8.40;99.90
55173;DHT22;41061;52.822;6.860;2023-02-04T14:13:29;8.30;99.90
55173;DHT22;41061;52.822;6.860;2023-02-04T14:15:55;8.20;99.90
55173;DHT22;41061;52.822;6.860;2023-02-04T14:18:21;8.20;99.90
55173;DHT22;41061;52.822;6.860;2023-02-04T14:20:47;8.20;99.90
55173;DHT22;41061;52.822;6.860;2023-02-04T14:23:12;8.20;99.90
55173;DHT22;41061;52.822;6.860;2023-02-04T14:25:38;8.20;99.90
55173;DHT22;41061;52.822;6.860;2023-02-04T14:28:05;8.20;99.90
55173;DHT22;41061;52.822;6.860;2023-02-04T14:30:31;8.10;99.90
55173;DHT22;41061;52.822;6.860;2023-02-04T14:32:57;8.10;99.90
55173;DHT22;41061;52.822;6.860;2023-02-04T14:35:24;8.00;99.90
55173;DHT22;41061;52.822;6.860;2023-02-04T14:37:50;7.90;99.90
55173;DHT22;41061;52.822;6.860;2023-02-04T14:40:17;7.90;99.90
55173;DHT22;41061;52.822;6.860;2023-02-04T14:42:43;8.00;99.90
55173;DHT22;41061;52.822;6.860;2023-02-04T14:45:10;7.90;99.90
55173;DHT22;41061;52.822;6.860;2023-02-04T14:47:37;8.00;99.90
55173;DHT22;41061;52.822;6.860;2023-02-04T14:50:06;8.00;99.90
55173;DHT22;41061;52.822;6.860;2023-02-04T14:52:32;8.10;99.90
55173;DHT22;41061;52.822;6.860;2023-02-04T14:54:57;8.10;99.90
55173;DHT22;41061;52.822;6.860;2023-02-04T14:57:24;8.10;99.90
55173;DHT22;41061;52.822;6.860;2023-02-04T14:59:50;8.20;99.90
55173;DHT22;41061;52.822;6.860;2023-02-04T15:02:15;8.30;99.90
55173;DHT22;41061;52.822;6.860;2023-02-04T15:04:44;8.30;99.90
55173;DHT22;41061;52.822;6.860;2023-02-04T15:07:11;8.30;99.90
55173;DHT22;41061;52.822;6.860;2023-02-04T15:09:37;8.30;99.90
55173;DHT22;41061;52.822;6.860;2023-02-04T15:12:04;8.30;99.90
55173;DHT22;41061;52.822;6.860;2023-02-04T15:14:29;8.40;99.90
55173;DHT22;41061;52.822;6.860;2023-02-04T15:16:55;8.30;99.90
55173;DHT22;41061;52.822;6.860;2023-02-04T15:19:21;8.30;99.90
55173;DHT22;41061;52.822;6.860;2023-02-04T15:21:49;8.20;99.90
55173;DHT22;41061;52.822;6.860;2023-02-04T15:24:16;8.20;99.90
55173;DHT22;41061;52.822;6.860;2023-02-04T16:42:15;6.10;99.90
55173;DHT22;41061;52.822;6.860;2023-02-04T16:44:41;6.00;99.90
55173;DHT22;41061;52.822;6.860;2023-02-04T16:47:07;6.00;99.90
55173;DHT22;41061;52.822;6.860;2023-02-04T16:49:34;6.00;99.90
55173;DHT22;41061;52.822;6.860;2023-02-04T16:52:00;5.90;99.90
55173;DHT22;41061;52.822;6.860;2023-02-04T16:54:32;5.90;99.90
55173;DHT22;41061;52.822;6.860;2023-02-04T16:56:58;5.80;99.90
55173;DHT22;41061;52.822;6.860;2023-02-04T16:59:26;5.80;99.90
55173;DHT22;41061;52.822;6.860;2023-02-04T17:01:52;5.70;99.90
55173;DHT22;41061;52.822;6.860;2023-02-04T17:04:18;5.70;99.90
55173;DHT22;41061;52.822;6.860;2023-02-04T17:06:43;5.60;99.90
55173;DHT22;41061;52.822;6.860;2023-02-04T17:09:09;5.60;99.90
55173;DHT22;41061;52.822;6.860;2023-02-04T17:11:35;5.50;99.90
55173;DHT22;41061;52.822;6.860;2023-02-04T17:14:06;5.50;99.90
55173;DHT22;41061;52.822;6.860;2023-02-04T17:16:36;5.40;99.90
55173;DHT22;41061;52.822;6.860;2023-02-04T17:19:03;5.40;99.90
55173;DHT22;41061;52.822;6.860;2023-02-04T17:21:30;5.30;99.90